Time;durP1;ratioP1;P1;durP2;ratioP2;P2;SDS_P1;SDS_P2;PMS_P1;PMS_P2;Temp;Humidity;BMP_temperature;BMP_pressure;BME280_temperature;BME280_humidity;BME280_pressure;Samples;Min_cycle;Max_cycle;Signal;HPM_P1;HPM_P2
2022/12/24 00:00:59;;;;;;;27.83;15.50;;;;;;;;;;5154686;27;20022;-69
2022/12/24 00:03:24;;;;;;;28.80;14.95;;;;;;;;;;5154447;27;20602;-70
2022/12/24 00:05:50;;;;;;;31.98;15.05;;;;;;;;;;5154495;27;20019;-71
2022/12/24 00:08:15;;;;;;;34.15;14.95;;;;;;;;;;5154414;27;20014;-70
2022/12/24 00:10:41;;;;;;;31.15;15.27;;;;;;;;;;5154383;27;20419;-70
2022/12/24 00:13:06;;;;;;;27.73;13.73;;;;;;;;;;5154238;27;20019;-70
2022/12/24 00:15:31;;;;;;;26.00;13.20;;;;;;;;;;5153881;27;20038;-70
2022/12/24 00:17:57;;;;;;;26.48;12.20;;;;;;;;;;5154157;27;20630;-72
2022/12/24 00:20:23;;;;;;;23.13;12.23;;;;;;;;;;5154203;27;20026;-71
2022/12/24 00:22:49;;;;;;;24.10;12.30;;;;;;;;;;5154002;27;20022;-71
2022/12/24 00:25:14;;;;;;;22.58;11.27;;;;;;;;;;5153931;27;20029;-71
2022/12/24 00:27:40;;;;;;;21.63;10.77;;;;;;;;;;5153989;27;20015;-70
2022/12/24 00:30:06;;;;;;;24.73;11.20;;;;;;;;;;5153985;27;20018;-71
2022/12/24 00:32:31;;;;;;;19.35;9.60;;;;;;;;;;5154336;27;20419;-70
2022/12/24 00:34:56;;;;;;;20.10;9.13;;;;;;;;;;5153492;27;20486;-71
2022/12/24 00:37:22;;;;;;;14.80;8.80;;;;;;;;;;5153810;27;20496;-71
2022/12/24 00:39:47;;;;;;;16.42;9.45;;;;;;;;;;5153983;27;20019;-70
2022/12/24 00:42:12;;;;;;;17.25;9.15;;;;;;;;;;5153720;27;20038;-75
2022/12/24 00:44:38;;;;;;;19.70;9.52;;;;;;;;;;5153643;27;20019;-76
2022/12/24 00:47:03;;;;;;;19.95;9.82;;;;;;;;;;5153651;27;20034;-75
2022/12/24 00:49:28;;;;;;;17.73;9.50;;;;;;;;;;5153361;27;20030;-76
2022/12/24 00:51:54;;;;;;;17.02;8.90;;;;;;;;;;5153345;27;20027;-77
2022/12/24 00:54:19;;;;;;;15.95;8.80;;;;;;;;;;5153461;27;20501;-76
2022/12/24 00:56:45;;;;;;;18.42;9.23;;;;;;;;;;5153805;27;20023;-74
2022/12/24 00:59:11;;;;;;;17.42;8.70;;;;;;;;;;5153458;27;20081;-75
2022/12/24 01:01:37;;;;;;;16.15;8.75;;;;;;;;;;5153367;27;20034;-77
2022/12/24 01:06:46;;;;;;;13.13;7.90;;;;;;;;;;5153213;27;20126;-76
2022/12/24 01:09:12;;;;;;;13.95;8.10;;;;;;;;;;5153063;27;20109;-77
2022/12/24 01:11:37;;;;;;;15.52;8.20;;;;;;;;;;5153248;27;20029;-75
2022/12/24 01:14:03;;;;;;;13.43;7.63;;;;;;;;;;5153007;27;20519;-76
2022/12/24 01:16:28;;;;;;;15.13;8.35;;;;;;;;;;5152915;27;20055;-77
2022/12/24 01:18:54;;;;;;;14.98;8.48;;;;;;;;;;5153035;27;20030;-75
2022/12/24 01:21:19;;;;;;;15.63;8.25;;;;;;;;;;5152648;27;20026;-75
2022/12/24 01:23:44;;;;;;;14.73;8.15;;;;;;;;;;5152735;27;20031;-73
2022/12/24 01:26:11;;;;;;;19.52;10.02;;;;;;;;;;5152625;27;20105;-75
2022/12/24 01:28:37;;;;;;;20.98;10.95;;;;;;;;;;5152794;27;20113;-74
2022/12/24 01:31:14;;;;;;;21.25;10.48;;;;;;;;;;5152790;27;20102;-74
2022/12/24 01:33:39;;;;;;;21.98;11.55;;;;;;;;;;5152414;27;20120;-73
2022/12/24 01:36:05;;;;;;;24.83;11.73;;;;;;;;;;5152590;27;20054;-74
2022/12/24 01:38:30;;;;;;;29.10;13.48;;;;;;;;;;5152672;27;20076;-74
2022/12/24 01:43:40;;;;;;;24.15;11.20;;;;;;;;;;5156961;27;20083;-73
2022/12/24 01:46:28;;;;;;;22.65;10.85;;;;;;;;;;5152592;27;20022;-74
2022/12/24 01:48:56;;;;;;;18.40;10.02;;;;;;;;;;5152686;27;20026;-74
2022/12/24 01:51:28;;;;;;;22.75;10.32;;;;;;;;;;5152472;27;20022;-73
2022/12/24 01:54:01;;;;;;;20.42;10.70;;;;;;;;;;5152225;27;20497;-73
2022/12/24 01:56:28;;;;;;;24.95;11.77;;;;;;;;;;5152273;27;20065;-72
2022/12/24 01:58:59;;;;;;;24.23;10.95;;;;;;;;;;5152179;27;20030;-73
2022/12/24 02:01:24;;;;;;;20.83;10.77;;;;;;;;;;5152044;27;20449;-73
2022/12/24 02:03:50;;;;;;;19.77;10.40;;;;;;;;;;5151808;27;20050;-72
2022/12/24 02:06:18;;;;;;;20.77;10.45;;;;;;;;;;5152291;27;20506;-74
2022/12/24 02:08:44;;;;;;;21.02;10.93;;;;;;;;;;5152377;27;20434;-73
2022/12/24 02:11:16;;;;;;;24.60;10.05;;;;;;;;;;5152179;27;20113;-72
2022/12/24 02:13:50;;;;;;;19.70;9.80;;;;;;;;;;5151816;27;20068;-75
2022/12/24 02:16:18;;;;;;;18.63;9.82;;;;;;;;;;5151898;27;20019;-74
2022/12/24 02:19:36;;;;;;;18.63;10.00;;;;;;;;;;5151727;27;20091;-72
2022/12/24 02:22:26;;;;;;;19.25;10.10;;;;;;;;;;5082539;27;20027;-75
2022/12/24 02:25:12;;;;;;;19.42;9.75;;;;;;;;;;5151870;27;20030;-73
2022/12/24 02:27:54;;;;;;;22.13;12.40;;;;;;;;;;5139781;27;20031;-74
2022/12/24 02:30:45;;;;;;;23.77;13.50;;;;;;;;;;5152048;27;20018;-73
2022/12/24 02:33:28;;;;;;;18.67;11.88;;;;;;;;;;5108680;27;20034;-74
2022/12/24 02:36:05;;;;;;;18.55;11.18;;;;;;;;;;5151564;27;20023;-73
2022/12/24 02:38:37;;;;;;;19.15;11.13;;;;;;;;;;5151817;27;20027;-72
2022/12/24 02:41:13;;;;;;;21.88;11.70;;;;;;;;;;5151767;27;20037;-72
2022/12/24 02:43:42;;;;;;;19.27;11.50;;;;;;;;;;5151547;27;20057;-73
2022/12/24 02:46:23;;;;;;;21.40;11.38;;;;;;;;;;5151789;27;20019;-73
2022/12/24 02:48:49;;;;;;;20.15;10.68;;;;;;;;;;5151506;27;20026;-73
2022/12/24 02:51:15;;;;;;;19.13;10.45;;;;;;;;;;5151624;27;20027;-74
2022/12/24 02:53:41;;;;;;;17.00;10.70;;;;;;;;;;5152954;27;20049;-73
2022/12/24 02:56:13;;;;;;;19.13;10.52;;;;;;;;;;5155717;27;20027;-73
2022/12/24 02:58:43;;;;;;;18.27;11.38;;;;;;;;;;5155897;27;20045;-73
2022/12/24 03:01:21;;;;;;;17.25;10.45;;;;;;;;;;5155681;27;20037;-73
2022/12/24 03:03:58;;;;;;;18.92;11.07;;;;;;;;;;5155495;27;20099;-73
2022/12/24 03:06:37;;;;;;;18.60;10.55;;;;;;;;;;5155696;27;20079;-74
2022/12/24 03:09:23;;;;;;;18.42;10.63;;;;;;;;;;5155566;27;20060;-73
2022/12/24 03:11:58;;;;;;;17.38;9.90;;;;;;;;;;5155400;27;20392;-74
2022/12/24 03:14:25;;;;;;;18.60;10.48;;;;;;;;;;5155384;27;20023;-72
2022/12/24 03:16:50;;;;;;;20.25;11.18;;;;;;;;;;5155448;27;20494;-73
2022/12/24 03:19:16;;;;;;;20.92;10.65;;;;;;;;;;5155243;27;20023;-73
2022/12/24 03:21:42;;;;;;;18.88;11.05;;;;;;;;;;5155255;27;20031;-74
2022/12/24 03:24:09;;;;;;;20.33;10.93;;;;;;;;;;5155250;27;20060;-73
2022/12/24 03:26:35;;;;;;;18.45;10.48;;;;;;;;;;5155317;27;20061;-73
2022/12/24 03:29:04;;;;;;;19.77;10.18;;;;;;;;;;5155047;27;20034;-72
2022/12/24 03:31:40;;;;;;;16.17;9.60;;;;;;;;;;5155505;27;20033;-72
2022/12/24 03:34:06;;;;;;;18.73;10.60;;;;;;;;;;5154905;27;20046;-73
2022/12/24 03:36:34;;;;;;;14.32;9.75;;;;;;;;;;5154982;27;20053;-73
2022/12/24 03:38:59;;;;;;;16.27;9.43;;;;;;;;;;5155274;27;20023;-73
2022/12/24 03:41:25;;;;;;;17.33;9.30;;;;;;;;;;5154529;27;20023;-74
2022/12/24 03:43:50;;;;;;;17.15;8.93;;;;;;;;;;5154663;27;20071;-76
2022/12/24 03:46:15;;;;;;;17.55;9.52;;;;;;;;;;5154712;27;20051;-74
2022/12/24 03:48:41;;;;;;;17.40;9.57;;;;;;;;;;5136074;27;20034;-78
2022/12/24 03:51:16;;;;;;;20.48;9.50;;;;;;;;;;5154566;27;20026;-76
2022/12/24 03:53:41;;;;;;;17.70;9.70;;;;;;;;;;5154673;27;20023;-79
2022/12/24 03:56:07;;;;;;;15.13;9.07;;;;;;;;;;5154670;27;20023;-78
2022/12/24 03:58:32;;;;;;;17.35;9.77;;;;;;;;;;5154947;27;20023;-74
2022/12/24 04:00:57;;;;;;;15.35;8.73;;;;;;;;;;5154623;27;20071;-74
2022/12/24 04:03:23;;;;;;;14.90;8.88;;;;;;;;;;5154217;27;20033;-77
2022/12/24 04:06:02;;;;;;;16.42;9.13;;;;;;;;;;5153687;27;20034;-77
2022/12/24 04:08:27;;;;;;;15.82;9.43;;;;;;;;;;5154494;27;20482;-76
2022/12/24 04:10:53;;;;;;;14.40;8.15;;;;;;;;;;5154566;27;20023;-75
2022/12/24 04:13:18;;;;;;;15.32;8.10;;;;;;;;;;5154378;27;20101;-75
2022/12/24 04:15:43;;;;;;;15.85;7.85;;;;;;;;;;5154141;27;20076;-76
2022/12/24 04:18:09;;;;;;;13.27;8.48;;;;;;;;;;5153955;27;20063;-73
2022/12/24 04:20:34;;;;;;;12.23;8.00;;;;;;;;;;5154119;27;20092;-73
2022/12/24 04:23:00;;;;;;;14.70;7.80;;;;;;;;;;5152755;27;20019;-73
2022/12/24 04:25:25;;;;;;;13.63;7.88;;;;;;;;;;5153927;27;20035;-73
2022/12/24 04:27:50;;;;;;;15.02;7.38;;;;;;;;;;5154195;27;20054;-74
2022/12/24 04:30:16;;;;;;;15.10;8.02;;;;;;;;;;5154206;27;20025;-74
2022/12/24 04:32:41;;;;;;;14.40;7.72;;;;;;;;;;5155886;27;20023;-73
2022/12/24 04:35:07;;;;;;;12.95;7.47;;;;;;;;;;5177475;27;20026;-75
2022/12/24 04:37:33;;;;;;;13.00;7.57;;;;;;;;;;5174215;27;20021;-75
2022/12/24 04:39:58;;;;;;;11.10;7.03;;;;;;;;;;5153801;27;20022;-75
2022/12/24 04:42:24;;;;;;;12.02;7.30;;;;;;;;;;5153574;27;20073;-74
2022/12/24 04:44:49;;;;;;;10.90;6.78;;;;;;;;;;5153669;27;20023;-75
2022/12/24 04:47:15;;;;;;;12.38;7.53;;;;;;;;;;5153779;27;20027;-74
2022/12/24 04:49:40;;;;;;;11.68;6.63;;;;;;;;;;5153578;27;20126;-74
2022/12/24 04:52:05;;;;;;;11.75;7.07;;;;;;;;;;5153598;27;20021;-74
2022/12/24 04:54:31;;;;;;;12.65;7.13;;;;;;;;;;5153274;27;20464;-74
2022/12/24 04:56:56;;;;;;;12.77;6.65;;;;;;;;;;5153316;27;20027;-74
2022/12/24 04:59:22;;;;;;;13.65;7.20;;;;;;;;;;5153339;27;20098;-73
2022/12/24 05:01:47;;;;;;;11.05;6.97;;;;;;;;;;5153500;27;20025;-74
2022/12/24 05:04:13;;;;;;;10.32;6.60;;;;;;;;;;5153159;27;20039;-73
2022/12/24 05:06:38;;;;;;;10.57;6.13;;;;;;;;;;5153151;27;20534;-73
2022/12/24 05:09:03;;;;;;;10.13;6.38;;;;;;;;;;5153234;27;20015;-73
2022/12/24 05:11:29;;;;;;;10.93;6.28;;;;;;;;;;5153228;27;20443;-73
2022/12/24 05:13:54;;;;;;;11.45;6.25;;;;;;;;;;5153054;27;20080;-73
2022/12/24 05:16:21;;;;;;;11.38;6.30;;;;;;;;;;5150613;27;20015;-73
2022/12/24 05:18:47;;;;;;;10.63;6.47;;;;;;;;;;5152963;27;20568;-73
2022/12/24 05:21:15;;;;;;;11.93;6.55;;;;;;;;;;5153059;27;20485;-73
2022/12/24 05:26:35;;;;;;;10.90;6.25;;;;;;;;;;5113634;27;20056;-73
2022/12/24 05:29:05;;;;;;;12.05;6.28;;;;;;;;;;5152714;27;20058;-73
2022/12/24 05:31:32;;;;;;;11.00;6.47;;;;;;;;;;5152718;27;20027;-73
2022/12/24 05:33:58;;;;;;;11.25;6.25;;;;;;;;;;5151197;27;20084;-73
2022/12/24 05:36:24;;;;;;;11.23;5.97;;;;;;;;;;5152314;27;20409;-73
2022/12/24 05:38:49;;;;;;;11.27;6.53;;;;;;;;;;5152837;27;20090;-73
2022/12/24 05:41:14;;;;;;;12.70;7.18;;;;;;;;;;5152604;27;20525;-73
2022/12/24 05:43:40;;;;;;;10.73;6.32;;;;;;;;;;5152234;27;20130;-74
2022/12/24 05:46:08;;;;;;;10.77;6.65;;;;;;;;;;5152334;27;20117;-74
2022/12/24 05:48:34;;;;;;;12.25;6.10;;;;;;;;;;5152196;27;20026;-74
2022/12/24 05:51:03;;;;;;;11.77;6.60;;;;;;;;;;5152318;27;20056;-73
2022/12/24 05:53:29;;;;;;;12.05;6.10;;;;;;;;;;5152569;27;20034;-73
2022/12/24 05:55:54;;;;;;;12.77;6.30;;;;;;;;;;5152301;27;20022;-74
2022/12/24 05:58:19;;;;;;;13.05;6.00;;;;;;;;;;5152221;27;20030;-74
2022/12/24 06:00:45;;;;;;;11.88;6.20;;;;;;;;;;5152181;27;20027;-73
2022/12/24 06:03:10;;;;;;;11.80;5.95;;;;;;;;;;5152054;27;20031;-74
2022/12/24 06:05:36;;;;;;;13.00;6.10;;;;;;;;;;5151803;27;20079;-77
2022/12/24 06:08:01;;;;;;;11.48;6.20;;;;;;;;;;5152071;27;20015;-73
2022/12/24 06:10:26;;;;;;;12.23;6.10;;;;;;;;;;5152079;27;20030;-74
2022/12/24 06:12:52;;;;;;;11.65;6.20;;;;;;;;;;5152294;27;20463;-74
2022/12/24 06:15:17;;;;;;;9.30;5.60;;;;;;;;;;5151977;27;20022;-74
2022/12/24 06:17:43;;;;;;;12.93;6.20;;;;;;;;;;5152050;27;20051;-74
2022/12/24 06:20:08;;;;;;;10.90;6.20;;;;;;;;;;5151610;27;20496;-71
2022/12/24 06:22:34;;;;;;;10.88;5.97;;;;;;;;;;5151837;27;20109;-72
2022/12/24 06:24:59;;;;;;;9.70;5.88;;;;;;;;;;5151748;27;20378;-72
2022/12/24 06:27:24;;;;;;;12.45;5.43;;;;;;;;;;5151678;27;20049;-72
2022/12/24 06:29:50;;;;;;;10.52;6.10;;;;;;;;;;5151819;27;20473;-73
2022/12/24 06:32:15;;;;;;;10.70;6.15;;;;;;;;;;5151973;27;20023;-73
2022/12/24 06:34:40;;;;;;;9.88;6.15;;;;;;;;;;5151725;27;20029;-72
2022/12/24 06:37:06;;;;;;;10.38;6.05;;;;;;;;;;5151364;27;20026;-72
2022/12/24 06:39:31;;;;;;;12.07;6.80;;;;;;;;;;5151638;27;20114;-74
2022/12/24 06:41:57;;;;;;;11.45;7.05;;;;;;;;;;5151219;27;20047;-73
2022/12/24 06:44:22;;;;;;;13.35;7.07;;;;;;;;;;5151720;27;20023;-73
2022/12/24 06:46:48;;;;;;;11.90;6.70;;;;;;;;;;5151656;27;20029;-74
2022/12/24 06:49:13;;;;;;;13.82;6.95;;;;;;;;;;5153552;27;20030;-73
2022/12/24 06:51:38;;;;;;;10.50;6.43;;;;;;;;;;5153839;27;20375;-72
2022/12/24 06:54:04;;;;;;;12.20;7.10;;;;;;;;;;5151656;27;20060;-72
2022/12/24 06:56:29;;;;;;;12.20;7.38;;;;;;;;;;5151240;27;20030;-72
2022/12/24 06:58:55;;;;;;;10.98;6.93;;;;;;;;;;5151462;27;20402;-73
2022/12/24 07:01:20;;;;;;;11.52;7.40;;;;;;;;;;5151556;27;20018;-74
2022/12/24 07:03:46;;;;;;;15.68;7.03;;;;;;;;;;5151366;27;20118;-76
2022/12/24 07:06:25;;;;;;;10.50;6.75;;;;;;;;;;5151364;27;20026;-75
2022/12/24 07:08:51;;;;;;;11.80;6.05;;;;;;;;;;5154549;27;20222;-73
2022/12/24 07:11:17;;;;;;;13.45;6.30;;;;;;;;;;5163007;27;20023;-74
2022/12/24 07:13:42;;;;;;;10.02;6.25;;;;;;;;;;5159231;27;20483;-70
2022/12/24 07:16:08;;;;;;;10.60;6.18;;;;;;;;;;5155310;27;20034;-77
2022/12/24 07:18:33;;;;;;;9.30;4.97;;;;;;;;;;5151294;27;20027;-75
2022/12/24 07:21:00;;;;;;;8.15;5.28;;;;;;;;;;5151437;27;20076;-72
2022/12/24 07:23:25;;;;;;;8.52;5.10;;;;;;;;;;5151211;27;20083;-74
2022/12/24 07:25:50;;;;;;;8.93;5.20;;;;;;;;;;5152535;27;20034;-72
2022/12/24 07:28:16;;;;;;;9.52;5.22;;;;;;;;;;5151854;27;20386;-72
2022/12/24 07:30:41;;;;;;;9.55;5.07;;;;;;;;;;5151580;27;20099;-73
2022/12/24 07:33:07;;;;;;;10.82;4.60;;;;;;;;;;5151049;27;20030;-72
2022/12/24 07:35:32;;;;;;;7.07;4.80;;;;;;;;;;5150957;27;20423;-73
2022/12/24 07:37:58;;;;;;;9.27;5.07;;;;;;;;;;5151032;27;20084;-71
2022/12/24 07:40:23;;;;;;;8.07;4.75;;;;;;;;;;5153420;27;20097;-72
2022/12/24 07:42:49;;;;;;;10.23;5.47;;;;;;;;;;5153588;27;20510;-72
2022/12/24 07:45:14;;;;;;;9.40;4.88;;;;;;;;;;5155132;27;20498;-72
2022/12/24 07:47:39;;;;;;;10.35;5.03;;;;;;;;;;5153579;27;20031;-71
2022/12/24 07:50:05;;;;;;;9.68;5.10;;;;;;;;;;5154542;27;20470;-71
2022/12/24 07:52:31;;;;;;;11.57;5.18;;;;;;;;;;5154669;27;20389;-74
2022/12/24 07:54:56;;;;;;;13.75;5.47;;;;;;;;;;5154581;27;20051;-72
2022/12/24 07:57:22;;;;;;;9.07;4.82;;;;;;;;;;5154541;27;20034;-73
2022/12/24 07:59:47;;;;;;;9.93;4.82;;;;;;;;;;5154649;27;20029;-73
2022/12/24 08:02:13;;;;;;;9.57;5.15;;;;;;;;;;5154533;27;20643;-72
2022/12/24 08:04:38;;;;;;;9.35;4.82;;;;;;;;;;5154341;27;20588;-73
2022/12/24 08:07:05;;;;;;;10.77;5.28;;;;;;;;;;5154230;27;20796;-74
2022/12/24 08:09:32;;;;;;;11.73;5.30;;;;;;;;;;5154480;27;20027;-75
2022/12/24 08:11:57;;;;;;;8.98;4.60;;;;;;;;;;5154554;27;20034;-71
2022/12/24 08:14:23;;;;;;;10.55;4.90;;;;;;;;;;5154316;27;20615;-70
2022/12/24 08:16:48;;;;;;;8.98;4.60;;;;;;;;;;5154135;27;20474;-71
2022/12/24 08:19:13;;;;;;;11.40;5.15;;;;;;;;;;5154163;27;20026;-73
2022/12/24 08:21:39;;;;;;;11.02;5.35;;;;;;;;;;5154897;27;20027;-68
2022/12/24 08:24:05;;;;;;;9.10;4.90;;;;;;;;;;5154083;27;20037;-70
2022/12/24 08:26:30;;;;;;;10.15;4.78;;;;;;;;;;5153855;27;20062;-73
2022/12/24 08:28:56;;;;;;;10.15;4.70;;;;;;;;;;5153959;27;20033;-70
2022/12/24 08:31:21;;;;;;;8.98;4.93;;;;;;;;;;5153917;27;20102;-69
2022/12/24 08:33:46;;;;;;;8.65;4.57;;;;;;;;;;5153912;27;20088;-73
2022/12/24 08:36:12;;;;;;;8.85;4.90;;;;;;;;;;5153941;27;20075;-74
2022/12/24 08:38:37;;;;;;;10.40;4.93;;;;;;;;;;5153612;27;20389;-70
2022/12/24 08:41:03;;;;;;;8.85;4.80;;;;;;;;;;5153790;27;20023;-74
2022/12/24 08:43:28;;;;;;;10.60;4.80;;;;;;;;;;5153804;27;20051;-73
2022/12/24 08:45:54;;;;;;;8.45;4.57;;;;;;;;;;5153429;27;20026;-73
2022/12/24 08:48:19;;;;;;;8.23;4.57;;;;;;;;;;5152097;27;20125;-73
2022/12/24 08:50:45;;;;;;;8.95;4.70;;;;;;;;;;5153732;27;20033;-71
2022/12/24 08:53:10;;;;;;;10.75;5.05;;;;;;;;;;5153386;27;20030;-73
2022/12/24 08:55:36;;;;;;;12.10;5.55;;;;;;;;;;5153424;27;20029;-74
2022/12/24 08:58:02;;;;;;;7.03;4.63;;;;;;;;;;5153296;27;20019;-70
2022/12/24 09:00:28;;;;;;;10.45;5.00;;;;;;;;;;5153166;27;20557;-73
2022/12/24 09:02:54;;;;;;;8.52;4.70;;;;;;;;;;5153032;27;20640;-73
2022/12/24 09:05:20;;;;;;;10.43;4.88;;;;;;;;;;5153059;27;20026;-73
2022/12/24 09:07:45;;;;;;;8.95;4.30;;;;;;;;;;5153184;27;20014;-72
2022/12/24 09:10:11;;;;;;;8.30;4.47;;;;;;;;;;5153261;27;20026;-71
2022/12/24 09:12:37;;;;;;;8.10;4.35;;;;;;;;;;5154102;27;20029;-73
2022/12/24 09:15:04;;;;;;;9.25;4.80;;;;;;;;;;5153270;27;20030;-78
2022/12/24 09:17:30;;;;;;;9.65;4.50;;;;;;;;;;5152715;27;20023;-77
2022/12/24 09:19:55;;;;;;;8.55;4.47;;;;;;;;;;5152702;27;20034;-70
2022/12/24 09:22:21;;;;;;;7.97;3.85;;;;;;;;;;5151345;27;20518;-72
2022/12/24 09:24:46;;;;;;;9.38;4.60;;;;;;;;;;5153001;27;20109;-70
2022/12/24 09:27:11;;;;;;;10.77;4.63;;;;;;;;;;5152741;27;20022;-74
2022/12/24 09:29:39;;;;;;;6.55;4.15;;;;;;;;;;5152847;27;20405;-71
2022/12/24 09:32:05;;;;;;;7.28;4.18;;;;;;;;;;5152967;27;20496;-70
2022/12/24 09:34:30;;;;;;;10.55;4.40;;;;;;;;;;5152803;27;20332;-71
2022/12/24 09:36:56;;;;;;;12.23;4.40;;;;;;;;;;5152368;27;20022;-75
2022/12/24 09:39:21;;;;;;;15.07;6.43;;;;;;;;;;5152512;27;20427;-78
2022/12/24 09:41:58;;;;;;;6.60;4.22;;;;;;;;;;5152430;27;20039;-72
2022/12/24 09:44:42;;;;;;;9.63;4.57;;;;;;;;;;5151237;27;20033;-72
2022/12/24 09:47:21;;;;;;;6.63;3.60;;;;;;;;;;5152356;27;20027;-73
2022/12/24 09:49:50;;;;;;;6.65;3.72;;;;;;;;;;5152372;27;20026;-77
2022/12/24 09:52:27;;;;;;;5.80;3.50;;;;;;;;;;5151609;27;20026;-75
2022/12/24 09:55:04;;;;;;;6.88;3.60;;;;;;;;;;5152215;27;20027;-70
2022/12/24 09:57:35;;;;;;;5.70;3.67;;;;;;;;;;5152079;27;20035;-70
2022/12/24 10:00:02;;;;;;;6.13;3.55;;;;;;;;;;5152299;27;20025;-71
2022/12/24 10:02:27;;;;;;;8.60;3.72;;;;;;;;;;5151622;27;20074;-74
2022/12/24 10:04:53;;;;;;;8.32;3.60;;;;;;;;;;5152173;27;20030;-74
2022/12/24 10:07:27;;;;;;;7.88;3.97;;;;;;;;;;5151507;27;20018;-72
2022/12/24 10:09:58;;;;;;;5.72;3.50;;;;;;;;;;5152025;27;20521;-75
2022/12/24 10:12:55;;;;;;;7.75;3.88;;;;;;;;;;5151920;27;20071;-73
2022/12/24 10:15:38;;;;;;;6.38;3.78;;;;;;;;;;5146976;27;20563;-75
2022/12/24 10:18:40;;;;;;;6.18;3.65;;;;;;;;;;5152151;27;20602;-76
2022/12/24 10:21:13;;;;;;;8.40;3.78;;;;;;;;;;5152042;27;20031;-76
2022/12/24 10:23:44;;;;;;;8.45;3.90;;;;;;;;;;5151795;27;20029;-78
2022/12/24 10:26:23;;;;;;;6.28;3.50;;;;;;;;;;5151960;27;20118;-74
2022/12/24 10:29:07;;;;;;;8.05;3.70;;;;;;;;;;5153543;27;20064;-76
2022/12/24 10:31:52;;;;;;;17.88;4.03;;;;;;;;;;5151650;27;20019;-73
2022/12/24 10:34:22;;;;;;;7.88;3.80;;;;;;;;;;5153172;27;20031;-71
2022/12/24 10:36:47;;;;;;;7.05;3.67;;;;;;;;;;5153717;27;20019;-70
2022/12/24 10:39:20;;;;;;;6.85;3.80;;;;;;;;;;5151557;27;20590;-70
2022/12/24 10:41:48;;;;;;;9.13;3.75;;;;;;;;;;5151371;27;20042;-70
2022/12/24 10:44:17;;;;;;;5.75;3.63;;;;;;;;;;5151717;27;20075;-70
2022/12/24 10:46:44;;;;;;;8.95;3.92;;;;;;;;;;5151544;27;20030;-70
2022/12/24 10:49:15;;;;;;;5.70;3.50;;;;;;;;;;5153341;27;20026;-72
2022/12/24 10:51:47;;;;;;;9.55;3.72;;;;;;;;;;5151639;27;20027;-71
2022/12/24 10:54:21;;;;;;;5.60;3.53;;;;;;;;;;5151551;27;20042;-73
2022/12/24 10:56:51;;;;;;;6.63;3.80;;;;;;;;;;5151639;27;20382;-72
2022/12/24 10:59:41;;;;;;;6.88;3.75;;;;;;;;;;5151489;27;20019;-72
2022/12/24 11:02:32;;;;;;;7.72;3.95;;;;;;;;;;5151484;27;20099;-71
2022/12/24 11:04:59;;;;;;;6.15;3.80;;;;;;;;;;5151226;27;20019;-72
2022/12/24 11:07:26;;;;;;;7.43;3.67;;;;;;;;;;5151317;27;20022;-73
2022/12/24 11:10:07;;;;;;;8.27;4.28;;;;;;;;;;5151199;27;20023;-69
2022/12/24 11:12:46;;;;;;;8.82;3.85;;;;;;;;;;5151512;27;20049;-73
2022/12/24 11:15:33;;;;;;;10.88;4.10;;;;;;;;;;5153757;27;20058;-73
2022/12/24 11:18:13;;;;;;;5.93;3.58;;;;;;;;;;5153748;27;20188;-76
2022/12/24 11:20:39;;;;;;;7.43;3.75;;;;;;;;;;5155312;27;20019;-73
2022/12/24 11:23:05;;;;;;;8.82;3.80;;;;;;;;;;5155167;27;20113;-80
2022/12/24 11:25:33;;;;;;;7.28;3.40;;;;;;;;;;5155199;27;20098;-73
2022/12/24 11:28:19;;;;;;;8.57;3.53;;;;;;;;;;5155079;27;20649;-72
2022/12/24 11:31:17;;;;;;;7.13;3.60;;;;;;;;;;5155831;27;20071;-72
2022/12/24 11:33:52;;;;;;;8.07;3.40;;;;;;;;;;5155329;27;20635;-74
2022/12/24 11:36:22;;;;;;;6.25;3.35;;;;;;;;;;5155740;27;20116;-72
2022/12/24 11:38:56;;;;;;;6.85;3.60;;;;;;;;;;5154999;27;20603;-72
2022/12/24 11:41:23;;;;;;;7.22;3.80;;;;;;;;;;5154957;27;20030;-71
2022/12/24 11:44:00;;;;;;;7.10;3.45;;;;;;;;;;5153305;27;20042;-71
2022/12/24 11:46:25;;;;;;;5.03;2.95;;;;;;;;;;5154834;27;20022;-72
2022/12/24 11:49:04;;;;;;;7.00;3.00;;;;;;;;;;5154755;27;20389;-70
2022/12/24 11:51:30;;;;;;;6.43;3.13;;;;;;;;;;5155910;27;20423;-71
2022/12/24 11:54:05;;;;;;;5.90;3.17;;;;;;;;;;5154632;27;20504;-76
2022/12/24 11:56:39;;;;;;;7.80;3.20;;;;;;;;;;5154592;27;20019;-73
2022/12/24 11:59:15;;;;;;;8.75;3.20;;;;;;;;;;5154227;27;20411;-75
2022/12/24 12:01:48;;;;;;;6.30;3.28;;;;;;;;;;5154412;27;20027;-72
2022/12/24 12:04:23;;;;;;;5.85;3.38;;;;;;;;;;5154352;27;20074;-75
2022/12/24 12:06:57;;;;;;;8.93;3.40;;;;;;;;;;5153110;27;20029;-76
2022/12/24 12:09:32;;;;;;;6.90;3.20;;;;;;;;;;5154260;27;20027;-74
2022/12/24 12:12:06;;;;;;;9.15;3.20;;;;;;;;;;5154537;27;20508;-74
2022/12/24 12:14:43;;;;;;;6.80;3.10;;;;;;;;;;5154245;27;20378;-76
2022/12/24 12:17:31;;;;;;;6.15;3.00;;;;;;;;;;5154029;27;20398;-74
2022/12/24 12:20:22;;;;;;;5.32;2.78;;;;;;;;;;5156042;27;20059;-73
2022/12/24 12:22:50;;;;;;;7.25;2.90;;;;;;;;;;5157441;27;20131;-72
2022/12/24 12:25:24;;;;;;;8.00;3.30;;;;;;;;;;5153733;27;20385;-73
2022/12/24 12:27:53;;;;;;;7.07;3.00;;;;;;;;;;5154355;27;20526;-71
2022/12/24 12:30:20;;;;;;;7.05;2.97;;;;;;;;;;5153807;27;20031;-75
2022/12/24 12:33:00;;;;;;;6.85;2.85;;;;;;;;;;5153972;27;20078;-75
2022/12/24 12:35:30;;;;;;;7.23;2.70;;;;;;;;;;5157788;27;20026;-76
2022/12/24 12:38:10;;;;;;;7.07;2.70;;;;;;;;;;5154010;27;20015;-76
2022/12/24 12:40:54;;;;;;;7.80;2.70;;;;;;;;;;5153703;27;20031;-73
2022/12/24 12:43:53;;;;;;;5.97;2.60;;;;;;;;;;5160837;27;20054;-76
2022/12/24 12:46:18;;;;;;;5.43;2.38;;;;;;;;;;5157100;27;20026;-74
2022/12/24 12:49:10;;;;;;;5.88;2.42;;;;;;;;;;5153370;27;20026;-73
2022/12/24 12:51:58;;;;;;;5.75;2.20;;;;;;;;;;5153539;27;20022;-74
2022/12/24 12:54:45;;;;;;;4.93;2.10;;;;;;;;;;5153245;27;20022;-75
2022/12/24 12:57:14;;;;;;;5.93;2.30;;;;;;;;;;5153679;27;20054;-76
2022/12/24 12:59:49;;;;;;;3.88;2.05;;;;;;;;;;5153456;27;20027;-85
2022/12/24 13:02:32;;;;;;;4.15;1.58;;;;;;;;;;5153655;27;20031;-79
2022/12/24 13:05:07;;;;;;;4.93;1.55;;;;;;;;;;5153898;27;20046;-74
2022/12/24 13:07:50;;;;;;;6.60;1.38;;;;;;;;;;5153182;27;20512;-73
2022/12/24 13:10:43;;;;;;;2.67;1.40;;;;;;;;;;5153060;27;20027;-72
2022/12/24 13:13:36;;;;;;;4.07;1.48;;;;;;;;;;5153091;27;20065;-74
2022/12/24 13:16:07;;;;;;;2.70;1.35;;;;;;;;;;5153306;27;20030;-75
2022/12/24 13:18:57;;;;;;;4.15;1.50;;;;;;;;;;5154880;27;20358;-74
2022/12/24 13:21:26;;;;;;;3.60;1.50;;;;;;;;;;5157207;27;20118;-81
2022/12/24 13:24:05;;;;;;;2.08;1.27;;;;;;;;;;5153112;27;20027;-84
2022/12/24 13:26:31;;;;;;;2.55;1.40;;;;;;;;;;5156751;27;20118;-87
2022/12/24 13:29:42;;;;;;;5.78;1.70;;;;;;;;;;5153884;27;20105;-75
2022/12/24 13:32:28;;;;;;;3.28;1.40;;;;;;;;;;5128226;27;20039;-76
2022/12/24 13:34:58;;;;;;;5.25;1.48;;;;;;;;;;5137899;27;20066;-75
2022/12/24 13:37:26;;;;;;;3.13;1.73;;;;;;;;;;5152804;27;20031;-78
2022/12/24 13:40:07;;;;;;;6.45;1.85;;;;;;;;;;5152914;27;20272;-83
2022/12/24 13:42:57;;;;;;;7.15;1.88;;;;;;;;;;5152391;27;20050;-77
2022/12/24 13:45:32;;;;;;;;;;;;;;;;;;5152916;27;20023;-74
2022/12/24 13:48:06;;;;;;;4.63;1.33;;;;;;;;;;5157053;27;19913;-73
2022/12/24 13:50:46;;;;;;;3.75;1.52;;;;;;;;;;5155802;27;20046;-75
2022/12/24 13:53:35;;;;;;;6.30;1.60;;;;;;;;;;5158212;27;20035;-69
2022/12/24 13:56:12;;;;;;;3.17;1.30;;;;;;;;;;5144660;27;20039;-70
2022/12/24 13:58:44;;;;;;;3.35;1.52;;;;;;;;;;5155031;27;20438;-70
2022/12/24 14:01:15;;;;;;;2.55;1.25;;;;;;;;;;5152781;27;20072;-70
2022/12/24 14:03:42;;;;;;;3.78;1.45;;;;;;;;;;5152873;27;20497;-70
2022/12/24 14:06:24;;;;;;;6.45;1.50;;;;;;;;;;5152145;27;20107;-69
2022/12/24 14:08:56;;;;;;;5.60;1.50;;;;;;;;;;5155362;27;20072;-69
2022/12/24 14:11:23;;;;;;;4.68;1.45;;;;;;;;;;5152141;27;20101;-71
2022/12/24 14:13:50;;;;;;;3.03;1.58;;;;;;;;;;5155494;27;20019;-72
2022/12/24 14:16:21;;;;;;;4.00;1.33;;;;;;;;;;5153123;27;20027;-71
2022/12/24 14:19:11;;;;;;;3.50;1.48;;;;;;;;;;5151080;27;20026;-74
2022/12/24 14:21:44;;;;;;;4.77;1.50;;;;;;;;;;5150201;27;20027;-74
2022/12/24 14:24:16;;;;;;;4.03;1.40;;;;;;;;;;5152442;27;20022;-74
2022/12/24 14:26:48;;;;;;;3.10;1.48;;;;;;;;;;5151838;27;20105;-74
2022/12/24 14:29:23;;;;;;;5.30;1.50;;;;;;;;;;5157236;27;20068;-75
2022/12/24 14:32:03;;;;;;;3.35;1.30;;;;;;;;;;5163384;27;20387;-70
2022/12/24 14:34:29;;;;;;;5.07;1.50;;;;;;;;;;5163265;27;20382;-70
2022/12/24 14:36:55;;;;;;;3.25;1.45;;;;;;;;;;5162568;27;20035;-71
2022/12/24 14:39:31;;;;;;;3.75;1.30;;;;;;;;;;5162694;27;20325;-72
2022/12/24 14:42:07;;;;;;;3.25;1.30;;;;;;;;;;5162065;27;20102;-72
2022/12/24 14:44:43;;;;;;;2.40;1.23;;;;;;;;;;5163163;27;20030;-72
2022/12/24 14:47:20;;;;;;;3.90;1.45;;;;;;;;;;5162746;27;20063;-73
2022/12/24 14:50:09;;;;;;;5.20;1.50;;;;;;;;;;5166077;27;20022;-73
2022/12/24 14:52:47;;;;;;;2.67;1.45;;;;;;;;;;5165186;27;20434;-74
2022/12/24 14:55:42;;;;;;;3.38;1.50;;;;;;;;;;5166901;27;20345;-71
2022/12/24 14:58:29;;;;;;;4.07;1.50;;;;;;;;;;5156529;27;20015;-71
2022/12/24 15:00:58;;;;;;;5.63;1.70;;;;;;;;;;5148474;27;20066;-74